Time;durP1;ratioP1;P1;durP2;ratioP2;P2;SDS_P1;SDS_P2;PMS_P1;PMS_P2;Temp;Humidity;BMP_temperature;BMP_pressure;BME280_temperature;BME280_humidity;BME280_pressure;Samples;Min_cycle;Max_cycle;Signal;HPM_P1;HPM_P2
2023/08/11 00:01:41;;;;;;;13.85;12.30;;;16.90;99.90;;;;;;4963425;28;20149;-76
2023/08/11 00:04:07;;;;;;;13.35;12.13;;;16.90;99.90;;;;;;4968608;28;21008;-76
2023/08/11 00:06:33;;;;;;;15.27;12.20;;;16.90;99.90;;;;;;4985869;28;20494;-76
2023/08/11 00:08:59;;;;;;;13.45;12.05;;;16.90;99.90;;;;;;4979173;28;20068;-76
2023/08/11 00:11:26;;;;;;;13.48;12.07;;;16.90;99.90;;;;;;4967391;28;20053;-75
2023/08/11 00:13:52;;;;;;;14.80;11.77;;;16.90;99.90;;;;;;4983788;28;20046;-76
2023/08/11 00:16:18;;;;;;;14.00;12.70;;;16.90;99.90;;;;;;4981776;28;20052;-76
2023/08/11 00:18:45;;;;;;;14.20;12.63;;;16.90;99.90;;;;;;4978832;28;20070;-76
2023/08/11 00:21:12;;;;;;;13.55;11.60;;;16.90;99.90;;;;;;4973442;28;20504;-76
2023/08/11 00:23:39;;;;;;;12.90;11.63;;;16.90;99.90;;;;;;4985137;28;20053;-76
2023/08/11 00:26:08;;;;;;;14.35;12.40;;;16.90;99.90;;;;;;4986761;28;20043;-75
2023/08/11 00:28:34;;;;;;;15.88;13.10;;;16.90;99.90;;;;;;4973924;28;20482;-76
2023/08/11 00:31:00;;;;;;;15.82;13.52;;;16.90;99.90;;;;;;4988198;28;20045;-76
2023/08/11 00:33:25;;;;;;;15.40;13.80;;;16.90;99.90;;;;;;4955631;28;20546;-76
2023/08/11 00:35:51;;;;;;;15.18;12.88;;;16.90;99.90;;;;;;4963215;28;20047;-76
2023/08/11 00:38:17;;;;;;;14.00;11.40;;;16.90;99.90;;;;;;4983833;28;20048;-76
2023/08/11 00:40:42;;;;;;;12.88;11.35;;;16.90;99.90;;;;;;4959199;28;20486;-76
2023/08/11 00:43:08;;;;;;;14.10;12.25;;;16.90;99.90;;;;;;4983135;28;20430;-76
2023/08/11 00:45:34;;;;;;;14.88;11.65;;;16.90;99.90;;;;;;4980010;28;20038;-76
2023/08/11 00:48:00;;;;;;;12.40;11.10;;;16.80;99.90;;;;;;4967291;28;20132;-76
2023/08/11 00:50:26;;;;;;;14.18;10.38;;;16.80;99.90;;;;;;4982481;28;20557;-76
2023/08/11 00:52:52;;;;;;;13.05;11.32;;;16.80;99.90;;;;;;4976195;28;20567;-76
2023/08/11 00:55:18;;;;;;;12.90;10.55;;;16.70;99.90;;;;;;4981451;28;20061;-75
2023/08/11 00:57:46;;;;;;;12.93;11.60;;;16.70;99.90;;;;;;4966904;28;20046;-76
2023/08/11 01:00:13;;;;;;;12.65;11.43;;;16.70;99.90;;;;;;4967940;28;20256;-76
2023/08/11 01:02:44;;;;;;;14.60;11.70;;;16.70;99.90;;;;;;4981294;28;20068;-76
2023/08/11 01:05:14;;;;;;;;;;;16.70;99.90;;;;;;4984103;28;20046;-76
2023/08/11 01:08:09;;;;;;;13.15;11.00;;;16.70;99.90;;;;;;4965763;28;19956;-76
2023/08/11 01:11:17;;;;;;;13.05;11.23;;;16.70;99.90;;;;;;4966265;28;20799;-76
2023/08/11 01:13:52;;;;;;;12.55;10.80;;;16.70;99.90;;;;;;4918934;29;20096;-76
2023/08/11 01:16:19;;;;;;;12.43;11.13;;;16.70;99.90;;;;;;4914420;29;20047;-76
2023/08/11 01:18:45;;;;;;;12.57;11.20;;;16.70;99.90;;;;;;4950516;28;20051;-75
2023/08/11 01:21:14;;;;;;;12.80;11.50;;;16.70;99.90;;;;;;4975164;28;20054;-76
2023/08/11 01:23:42;;;;;;;14.60;11.88;;;16.70;99.90;;;;;;4984255;28;20674;-77
2023/08/11 01:26:08;;;;;;;12.15;10.95;;;16.80;99.90;;;;;;4980985;28;20062;-76
2023/08/11 01:28:34;;;;;;;11.82;10.70;;;16.80;99.90;;;;;;4981965;28;20414;-76
2023/08/11 01:31:00;;;;;;;12.47;11.17;;;16.70;99.90;;;;;;4980954;28;20556;-76
2023/08/11 01:33:26;;;;;;;11.57;10.38;;;16.70;99.90;;;;;;4969601;28;20058;-76
2023/08/11 01:35:51;;;;;;;11.90;10.70;;;16.70;99.90;;;;;;4978511;28;20042;-76
2023/08/11 01:38:17;;;;;;;14.05;10.95;;;16.70;99.90;;;;;;4978654;28;20043;-76
2023/08/11 01:40:43;;;;;;;13.40;11.38;;;16.70;99.90;;;;;;4960579;28;20056;-76
2023/08/11 01:43:12;;;;;;;14.02;11.00;;;16.70;99.90;;;;;;4956308;28;20930;-76
2023/08/11 01:45:39;;;;;;;12.27;10.90;;;16.70;99.90;;;;;;4980035;28;20058;-76
2023/08/11 01:48:05;;;;;;;12.65;11.23;;;16.70;99.90;;;;;;4965927;28;20054;-76
2023/08/11 01:50:33;;;;;;;15.25;11.25;;;16.70;99.90;;;;;;4983282;28;20054;-76
2023/08/11 01:52:58;;;;;;;12.63;11.30;;;16.60;99.90;;;;;;4984376;28;20093;-76
2023/08/11 01:55:25;;;;;;;12.80;11.35;;;16.60;99.90;;;;;;4982803;28;20090;-76
2023/08/11 01:57:52;;;;;;;12.77;11.13;;;16.60;99.90;;;;;;4982691;28;20159;-76
2023/08/11 02:00:17;;;;;;;13.35;11.35;;;16.60;99.90;;;;;;4980668;28;20053;-75
2023/08/11 02:02:47;;;;;;;14.15;11.80;;;16.60;99.90;;;;;;4982599;28;20058;-76
2023/08/11 02:05:13;;;;;;;13.57;11.80;;;16.60;99.90;;;;;;4969544;28;20046;-76
2023/08/11 02:07:42;;;;;;;12.82;11.50;;;16.60;99.90;;;;;;4986717;28;20042;-76
2023/08/11 02:10:09;;;;;;;13.10;11.85;;;16.50;99.90;;;;;;4962311;28;20074;-75
2023/08/11 02:12:36;;;;;;;14.47;12.00;;;16.50;99.90;;;;;;4976802;28;20070;-76
2023/08/11 02:15:04;;;;;;;13.27;11.90;;;16.50;99.90;;;;;;4977089;28;20492;-76
2023/08/11 02:17:31;;;;;;;13.10;11.73;;;16.50;99.90;;;;;;4979761;28;20081;-76
2023/08/11 02:19:58;;;;;;;13.48;12.25;;;16.50;99.90;;;;;;4987074;28;20141;-76
2023/08/11 02:22:24;;;;;;;13.98;12.57;;;16.40;99.90;;;;;;4966418;28;20050;-76
2023/08/11 02:24:50;;;;;;;13.63;12.13;;;16.50;99.90;;;;;;4968900;28;20460;-76
2023/08/11 02:27:15;;;;;;;13.10;11.88;;;16.50;99.90;;;;;;4980431;28;20490;-76
2023/08/11 02:29:41;;;;;;;14.73;13.13;;;16.50;99.90;;;;;;4982186;28;20154;-76
2023/08/11 02:32:07;;;;;;;13.50;11.93;;;16.50;99.90;;;;;;4965438;28;20046;-76
2023/08/11 02:34:34;;;;;;;13.27;11.77;;;16.50;99.90;;;;;;4966921;28;20791;-76
2023/08/11 02:37:00;;;;;;;15.20;12.20;;;16.40;99.90;;;;;;4986906;28;20146;-76
2023/08/11 02:39:26;;;;;;;13.40;12.10;;;16.50;99.90;;;;;;4983042;28;20333;-76
2023/08/11 02:41:52;;;;;;;13.15;11.88;;;16.40;99.90;;;;;;4965874;28;20356;-76
2023/08/11 02:44:18;;;;;;;13.05;11.75;;;16.50;99.90;;;;;;4984220;28;20101;-76
2023/08/11 02:46:43;;;;;;;13.05;11.65;;;16.40;99.90;;;;;;4982276;28;20211;-76
2023/08/11 02:49:09;;;;;;;14.35;12.20;;;16.40;99.90;;;;;;4970686;28;20049;-75
2023/08/11 02:51:35;;;;;;;13.00;11.65;;;16.40;99.90;;;;;;4976623;28;20081;-76
2023/08/11 02:54:00;;;;;;;12.77;11.57;;;16.40;99.90;;;;;;4989922;28;20493;-76
2023/08/11 02:56:27;;;;;;;13.95;12.50;;;16.40;99.90;;;;;;4980488;28;20577;-76
2023/08/11 02:58:56;;;;;;;13.77;11.88;;;16.30;99.90;;;;;;4963601;28;20466;-76
2023/08/11 03:01:25;;;;;;;12.48;11.13;;;16.30;99.90;;;;;;4977801;28;20451;-76
2023/08/11 03:03:52;;;;;;;15.23;11.57;;;16.30;99.90;;;;;;4983519;28;20057;-77
2023/08/11 03:06:18;;;;;;;;;;;16.30;99.90;;;;;;4962278;28;20059;-76
2023/08/11 03:08:44;;;;;;;14.13;11.30;;;16.30;99.90;;;;;;4979354;28;20374;-76
2023/08/11 03:11:09;;;;;;;12.43;11.23;;;16.20;99.90;;;;;;4964864;28;20043;-76
2023/08/11 03:13:36;;;;;;;12.77;11.13;;;16.30;99.90;;;;;;4980777;28;20129;-76
2023/08/11 03:16:02;;;;;;;13.50;11.23;;;16.30;99.90;;;;;;4966030;28;20620;-76
2023/08/11 03:18:28;;;;;;;14.35;11.00;;;16.20;99.90;;;;;;4969361;28;20392;-76
2023/08/11 03:20:53;;;;;;;13.68;11.57;;;16.20;99.90;;;;;;4972599;28;20206;-76
2023/08/11 03:23:20;;;;;;;14.07;10.75;;;16.20;99.90;;;;;;4969993;28;20077;-76
2023/08/11 03:25:46;;;;;;;12.27;10.98;;;16.20;99.90;;;;;;4979272;28;20050;-76
2023/08/11 03:28:12;;;;;;;11.93;10.68;;;16.20;99.90;;;;;;4974741;28;20046;-76
2023/08/11 03:30:37;;;;;;;11.65;10.48;;;16.20;99.90;;;;;;4964610;28;20085;-76
2023/08/11 03:33:03;;;;;;;11.55;10.35;;;16.20;99.90;;;;;;4978365;28;20433;-76
2023/08/11 03:35:32;;;;;;;15.63;10.13;;;16.20;99.90;;;;;;4981409;28;20070;-76
2023/08/11 03:37:58;;;;;;;11.15;9.98;;;16.10;99.90;;;;;;4967564;28;20461;-76
2023/08/11 03:40:23;;;;;;;11.50;10.27;;;16.20;99.90;;;;;;4981420;28;20042;-76
2023/08/11 03:42:49;;;;;;;12.05;10.30;;;16.10;99.90;;;;;;4981604;28;20121;-84
2023/08/11 03:45:15;;;;;;;12.35;9.80;;;16.10;99.90;;;;;;4979104;28;20144;-78
2023/08/11 03:47:42;;;;;;;11.60;9.95;;;16.10;99.90;;;;;;4983317;28;20498;-78
2023/08/11 03:50:09;;;;;;;12.13;10.40;;;16.10;99.90;;;;;;4962976;28;20042;-77
2023/08/11 03:52:35;;;;;;;11.77;10.23;;;16.00;99.90;;;;;;4965649;28;20053;-77
2023/08/11 03:55:09;;;;;;;12.20;9.93;;;16.00;99.90;;;;;;4984510;28;20050;-77
2023/08/11 03:57:39;;;;;;;11.73;9.70;;;16.00;99.90;;;;;;4967699;28;20708;-78
2023/08/11 04:00:09;;;;;;;11.23;9.73;;;15.90;99.90;;;;;;4971060;28;20494;-77
2023/08/11 04:02:36;;;;;;;12.45;9.98;;;15.90;99.90;;;;;;4964719;28;20587;-77
2023/08/11 04:05:01;;;;;;;10.95;9.85;;;15.90;99.90;;;;;;4986448;28;20041;-76
2023/08/11 04:07:27;;;;;;;11.75;10.00;;;15.80;99.90;;;;;;4986616;28;20718;-77
2023/08/11 04:09:54;;;;;;;13.73;10.07;;;15.80;99.90;;;;;;4963888;28;20081;-77
2023/08/11 04:12:20;;;;;;;16.30;10.27;;;15.80;99.90;;;;;;4982154;28;20054;-78
2023/08/11 04:14:46;;;;;;;12.98;10.27;;;15.80;99.90;;;;;;4975049;28;20871;-76
2023/08/11 04:17:16;;;;;;;13.32;9.82;;;15.80;99.90;;;;;;4969999;28;20096;-76
2023/08/11 04:19:42;;;;;;;13.13;9.63;;;15.80;99.90;;;;;;4970283;28;20054;-76
2023/08/11 04:22:08;;;;;;;14.13;10.30;;;15.80;99.90;;;;;;4983673;28;20046;-75
2023/08/11 04:24:35;;;;;;;10.90;9.80;;;15.70;99.90;;;;;;4983344;28;20038;-76
2023/08/11 04:27:00;;;;;;;10.23;9.13;;;15.70;99.90;;;;;;4981902;28;20042;-76
2023/08/11 04:29:26;;;;;;;10.93;9.73;;;15.70;99.90;;;;;;4985604;28;20804;-77
2023/08/11 04:31:52;;;;;;;10.35;9.02;;;15.70;99.90;;;;;;4985896;28;20470;-76
2023/08/11 04:34:18;;;;;;;10.05;9.05;;;15.70;99.90;;;;;;4965451;28;20050;-76
2023/08/11 04:36:44;;;;;;;11.82;9.32;;;15.70;99.90;;;;;;4984945;28;20544;-75
2023/08/11 04:39:10;;;;;;;13.40;9.63;;;15.70;99.90;;;;;;4987300;28;20038;-77
2023/08/11 04:41:37;;;;;;;12.43;9.63;;;15.70;99.90;;;;;;4981432;28;20501;-75
2023/08/11 04:44:04;;;;;;;10.90;9.57;;;15.70;99.90;;;;;;4982632;28;20057;-80
2023/08/11 04:46:31;;;;;;;11.70;10.35;;;15.70;99.90;;;;;;4979770;28;20058;-78
2023/08/11 04:48:56;;;;;;;10.30;9.20;;;15.70;99.90;;;;;;4982039;28;20074;-79
2023/08/11 04:51:22;;;;;;;11.52;9.45;;;15.70;99.90;;;;;;4987605;28;20473;-76
2023/08/11 04:53:49;;;;;;;10.20;9.20;;;15.80;99.90;;;;;;4981513;28;20054;-76
2023/08/11 04:56:15;;;;;;;13.30;10.15;;;15.80;99.90;;;;;;4967902;28;20054;-76
2023/08/11 04:58:41;;;;;;;16.63;9.77;;;15.90;99.90;;;;;;4982761;28;20042;-80
2023/08/11 05:01:07;;;;;;;10.52;9.52;;;15.90;99.90;;;;;;4981340;28;20058;-78
2023/08/11 05:03:33;;;;;;;10.82;9.70;;;15.90;99.90;;;;;;4978346;28;20046;-78
2023/08/11 05:05:59;;;;;;;11.25;10.15;;;15.90;99.90;;;;;;4987632;28;20035;-80
2023/08/11 05:08:24;;;;;;;11.55;9.75;;;16.00;99.90;;;;;;4970319;28;20050;-77
2023/08/11 05:10:50;;;;;;;13.48;9.98;;;16.00;99.90;;;;;;4984127;28;20035;-76
2023/08/11 05:13:16;;;;;;;11.10;9.60;;;16.10;99.90;;;;;;4980546;28;20053;-80
2023/08/11 05:15:41;;;;;;;14.20;9.88;;;16.10;99.90;;;;;;4974285;28;20065;-78
2023/08/11 05:18:07;;;;;;;11.88;9.63;;;16.20;99.90;;;;;;4994334;28;20054;-78
2023/08/11 05:20:33;;;;;;;12.00;9.77;;;16.20;99.90;;;;;;4990371;28;20085;-82
2023/08/11 05:22:58;;;;;;;13.70;9.85;;;16.20;99.90;;;;;;4991443;28;20038;-79
2023/08/11 05:25:24;;;;;;;11.07;9.95;;;16.30;99.90;;;;;;4995103;28;20034;-83
2023/08/11 05:27:50;;;;;;;12.95;10.10;;;16.30;99.90;;;;;;4996905;28;20061;-81
2023/08/11 05:30:17;;;;;;;11.48;10.18;;;16.40;99.90;;;;;;4997444;28;20042;-85
2023/08/11 05:32:42;;;;;;;15.38;10.82;;;16.50;99.90;;;;;;4997460;28;20042;-86
2023/08/11 05:35:08;;;;;;;12.10;10.07;;;16.50;99.90;;;;;;4983008;28;20053;-85
2023/08/11 05:37:34;;;;;;;11.45;10.35;;;16.60;99.90;;;;;;4998454;28;20050;-84
2023/08/11 05:40:00;;;;;;;11.68;10.20;;;16.60;99.90;;;;;;4996183;28;20043;-83
2023/08/11 05:42:26;;;;;;;12.93;11.00;;;16.70;99.90;;;;;;4981117;28;20478;-83
2023/08/11 05:44:52;;;;;;;13.25;10.75;;;16.70;99.90;;;;;;4979197;28;20046;-86
2023/08/11 05:47:17;;;;;;;13.50;10.68;;;16.80;99.90;;;;;;4996464;28;20034;-80
2023/08/11 05:49:43;;;;;;;11.45;10.35;;;16.80;99.90;;;;;;4988778;28;20121;-84
2023/08/11 05:52:09;;;;;;;11.75;10.35;;;16.90;99.90;;;;;;4988999;28;20043;-81
2023/08/11 05:54:36;;;;;;;12.05;10.13;;;17.00;99.90;;;;;;4978954;28;20047;-78
2023/08/11 05:57:01;;;;;;;11.27;9.80;;;17.10;99.90;;;;;;4987691;28;20038;-80
2023/08/11 05:59:27;;;;;;;12.18;10.27;;;17.10;99.90;;;;;;4963933;28;20054;-89
2023/08/11 06:01:53;;;;;;;11.30;9.85;;;17.20;99.90;;;;;;4983683;28;20149;-79
2023/08/11 06:04:18;;;;;;;10.43;9.38;;;17.20;99.90;;;;;;4984548;28;20042;-80
2023/08/11 06:06:44;;;;;;;13.02;10.55;;;17.30;99.90;;;;;;4977898;28;20046;-77
2023/08/11 06:09:10;;;;;;;15.77;9.85;;;17.40;99.90;;;;;;4970256;28;20081;-77
2023/08/11 06:11:36;;;;;;;12.40;9.75;;;17.40;99.90;;;;;;4983623;28;20038;-77
2023/08/11 06:14:02;;;;;;;11.90;9.63;;;17.50;99.90;;;;;;4989170;28;20034;-77
2023/08/11 06:16:28;;;;;;;13.33;9.40;;;17.50;99.90;;;;;;4989585;28;20446;-76
2023/08/11 06:18:54;;;;;;;11.70;8.70;;;17.60;99.90;;;;;;4983316;28;20357;-78
2023/08/11 06:21:23;;;;;;;12.25;8.82;;;17.70;99.90;;;;;;4981298;28;20528;-77
2023/08/11 06:23:49;;;;;;;11.98;8.93;;;17.70;99.90;;;;;;4971019;28;20396;-79
2023/08/11 06:26:15;;;;;;;14.48;8.40;;;17.80;99.90;;;;;;4986738;28;20482;-80
2023/08/11 06:28:41;;;;;;;11.07;7.70;;;17.90;99.90;;;;;;4965536;28;20065;-77
2023/08/11 06:31:09;;;;;;;10.50;7.80;;;17.90;99.90;;;;;;4983618;28;20089;-79
2023/08/11 06:33:35;;;;;;;13.23;7.40;;;18.00;99.90;;;;;;4988361;28;20042;-77
2023/08/11 06:36:00;;;;;;;9.77;7.80;;;18.10;99.90;;;;;;4987882;28;20038;-82
2023/08/11 06:38:26;;;;;;;12.90;8.13;;;18.10;99.90;;;;;;4967360;28;20074;-79
2023/08/11 06:40:52;;;;;;;10.13;7.53;;;18.20;99.90;;;;;;4984842;28;20125;-81
2023/08/11 06:43:18;;;;;;;10.25;7.10;;;18.20;99.90;;;;;;4983587;28;20046;-79
2023/08/11 06:45:45;;;;;;;8.82;7.10;;;18.20;99.90;;;;;;4989311;28;20043;-79
2023/08/11 06:48:11;;;;;;;11.38;7.97;;;18.40;99.90;;;;;;4992251;28;20077;-79
2023/08/11 06:50:37;;;;;;;10.67;8.00;;;18.40;99.90;;;;;;4988671;28;20052;-79
2023/08/11 06:53:03;;;;;;;13.57;7.40;;;18.50;99.90;;;;;;4983833;28;20344;-80
2023/08/11 06:55:29;;;;;;;10.15;6.90;;;18.60;99.90;;;;;;4969623;28;20046;-79
2023/08/11 06:57:55;;;;;;;9.93;6.72;;;18.60;99.90;;;;;;4990510;28;20117;-79
2023/08/11 07:00:21;;;;;;;9.48;6.18;;;18.70;99.90;;;;;;4978120;28;21765;-79
2023/08/11 07:02:47;;;;;;;8.68;6.15;;;18.80;99.90;;;;;;4965995;28;20061;-77
2023/08/11 07:05:13;;;;;;;9.88;6.50;;;18.80;99.90;;;;;;4975159;28;20293;-77
2023/08/11 07:07:38;;;;;;;9.77;5.75;;;18.90;99.90;;;;;;4990185;28;20548;-77
2023/08/11 07:10:04;;;;;;;8.23;5.43;;;19.00;99.90;;;;;;4964413;28;20517;-77
2023/08/11 07:12:30;;;;;;;8.00;5.75;;;19.10;99.90;;;;;;4986750;28;20050;-76
2023/08/11 07:14:56;;;;;;;9.77;5.32;;;19.10;99.90;;;;;;4988468;28;20046;-77
2023/08/11 07:17:25;;;;;;;7.00;5.10;;;19.20;99.90;;;;;;4957341;28;20054;-77
2023/08/11 07:19:50;;;;;;;10.75;5.75;;;19.30;99.90;;;;;;4983728;28;20057;-77
2023/08/11 07:22:17;;;;;;;8.80;4.43;;;19.40;99.90;;;;;;4981818;28;20050;-76
2023/08/11 07:24:43;;;;;;;6.85;4.65;;;19.50;99.90;;;;;;4984822;28;20046;-76
2023/08/11 07:27:08;;;;;;;7.05;4.68;;;19.50;99.90;;;;;;4973995;28;20093;-76
2023/08/11 07:29:34;;;;;;;6.25;4.38;;;19.60;99.90;;;;;;4981900;28;20082;-79
2023/08/11 07:32:00;;;;;;;6.15;4.60;;;19.70;99.90;;;;;;4978823;28;20437;-78
2023/08/11 07:34:26;;;;;;;5.45;4.10;;;19.80;99.90;;;;;;4979019;28;20046;-82
2023/08/11 07:36:51;;;;;;;6.15;3.90;;;19.90;99.90;;;;;;4964352;28;20054;-86
2023/08/11 07:39:17;;;;;;;7.65;4.20;;;20.00;99.90;;;;;;4985116;28;20049;-81
2023/08/11 07:41:46;;;;;;;6.07;3.80;;;20.10;99.90;;;;;;4970641;28;20078;-82
2023/08/11 07:44:12;;;;;;;5.57;3.40;;;20.20;99.90;;;;;;4984165;28;20461;-83
2023/08/11 07:46:41;;;;;;;7.28;4.00;;;20.20;99.90;;;;;;4981178;28;20047;-81
2023/08/11 07:49:07;;;;;;;7.38;3.55;;;20.30;99.90;;;;;;4967479;28;20050;-80
2023/08/11 07:51:32;;;;;;;6.93;4.03;;;20.40;99.90;;;;;;4976354;28;20046;-80
2023/08/11 07:53:58;;;;;;;6.20;3.70;;;20.40;99.90;;;;;;4984294;28;20112;-78
2023/08/11 07:56:23;;;;;;;6.25;3.90;;;20.50;99.90;;;;;;4981122;28;20454;-77
2023/08/11 07:58:49;;;;;;;6.35;3.78;;;20.60;99.90;;;;;;4989084;28;20073;-74
2023/08/11 08:01:15;;;;;;;5.32;3.35;;;20.60;99.90;;;;;;4986585;28;20054;-77
2023/08/11 08:03:40;;;;;;;8.15;3.83;;;20.70;99.90;;;;;;4968695;28;20061;-78
2023/08/11 08:06:06;;;;;;;4.13;3.53;;;20.70;99.90;;;;;;4977136;28;20062;-78
2023/08/11 08:08:35;;;;;;;4.75;2.97;;;20.80;99.90;;;;;;4975925;28;20049;-83
2023/08/11 08:11:02;;;;;;;4.57;3.20;;;20.90;99.90;;;;;;4964051;28;20083;-83
2023/08/11 08:13:28;;;;;;;4.67;3.40;;;21.00;99.90;;;;;;4980284;28;20557;-81
2023/08/11 08:15:56;;;;;;;6.25;3.72;;;21.10;99.90;;;;;;4978537;28;20832;-81
2023/08/11 08:18:25;;;;;;;4.97;3.22;;;21.10;99.90;;;;;;4975342;28;20046;-83
2023/08/11 08:20:50;;;;;;;4.70;3.00;;;21.20;99.90;;;;;;4985564;28;20101;-84
2023/08/11 08:23:17;;;;;;;4.07;2.80;;;21.20;99.90;;;;;;4976980;28;20051;-83
2023/08/11 08:25:42;;;;;;;7.10;3.22;;;21.30;99.90;;;;;;4988609;28;20054;-81
2023/08/11 08:28:10;;;;;;;4.85;3.28;;;21.40;99.90;;;;;;4982172;28;20054;-82
2023/08/11 08:30:36;;;;;;;4.70;3.08;;;21.40;99.90;;;;;;4983938;28;20046;-84
2023/08/11 08:33:02;;;;;;;4.68;3.28;;;21.50;99.90;;;;;;4983817;28;20050;-84
2023/08/11 08:35:28;;;;;;;6.68;3.80;;;21.60;99.90;;;;;;4980223;28;20081;-77
2023/08/11 08:37:54;;;;;;;6.05;3.65;;;21.70;99.90;;;;;;4973538;28;20107;-80
2023/08/11 08:40:20;;;;;;;8.32;3.50;;;21.70;99.90;;;;;;4985059;28;20038;-80
2023/08/11 08:42:45;;;;;;;4.47;3.55;;;21.80;99.90;;;;;;4964791;28;20096;-82
2023/08/11 08:45:11;;;;;;;9.32;3.70;;;21.80;99.90;;;;;;4977402;28;20061;-83
2023/08/11 08:47:39;;;;;;;6.10;3.42;;;21.90;99.90;;;;;;4977644;28;20063;-79
2023/08/11 08:50:06;;;;;;;7.25;4.07;;;22.00;99.90;;;;;;4971109;28;20039;-80
2023/08/11 08:52:33;;;;;;;4.85;3.75;;;22.00;99.90;;;;;;4979130;28;20054;-82
2023/08/11 08:55:00;;;;;;;5.68;3.63;;;22.10;99.90;;;;;;4978056;28;20035;-79
2023/08/11 08:57:26;;;;;;;;;;;22.10;99.90;;;;;;4968813;28;20255;-80
2023/08/11 08:59:51;;;;;;;5.03;3.23;;;22.20;99.90;;;;;;4957401;28;20297;-78
2023/08/11 09:02:17;;;;;;;3.65;3.17;;;22.30;99.90;;;;;;4982119;28;20600;-84
2023/08/11 09:04:45;;;;;;;7.57;3.80;;;22.40;99.90;;;;;;4980365;28;20460;-80
2023/08/11 09:07:11;;;;;;;7.90;3.45;;;22.50;99.90;;;;;;4984199;28;20855;-81
2023/08/11 09:09:37;;;;;;;7.05;3.20;;;22.60;99.90;;;;;;4981467;28;20063;-82
2023/08/11 09:12:03;;;;;;;7.60;3.60;;;22.60;99.90;;;;;;4975639;28;20074;-81
2023/08/11 09:14:29;;;;;;;6.20;3.23;;;22.70;99.90;;;;;;4991988;28;20061;-83
2023/08/11 09:16:57;;;;;;;20.77;4.30;;;22.70;99.90;;;;;;4984687;28;20046;-88
2023/08/11 09:19:23;;;;;;;6.57;3.45;;;22.80;99.90;;;;;;4984532;28;20038;-90
2023/08/11 09:21:49;;;;;;;5.55;3.30;;;22.90;99.90;;;;;;4984417;28;20085;-89
2023/08/11 09:24:15;;;;;;;5.40;3.10;;;22.90;99.90;;;;;;4983818;28;20485;-88
2023/08/11 09:26:43;;;;;;;5.97;3.00;;;22.90;99.90;;;;;;4982390;28;20048;-84
2023/08/11 09:29:09;;;;;;;5.35;3.33;;;23.00;99.90;;;;;;4985683;28;20046;-82
2023/08/11 09:31:36;;;;;;;5.75;3.38;;;23.10;99.90;;;;;;4985722;28;20096;-80
2023/08/11 09:34:17;;;;;;;8.10;3.72;;;23.20;99.90;;;;;;4986287;28;20054;-88
2023/08/11 09:36:44;;;;;;;6.43;3.05;;;23.30;99.90;;;;;;4974064;28;20126;-88
2023/08/11 09:39:13;;;;;;;6.28;3.40;;;23.30;99.90;;;;;;4963705;28;20054;-80
2023/08/11 09:41:47;;;;;;;4.70;3.10;;;23.40;99.90;;;;;;4966461;28;20053;-80
2023/08/11 09:44:17;;;;;;;6.13;2.60;;;23.50;99.90;;;;;;4983993;28;20509;-87
2023/08/11 09:46:44;;;;;;;4.18;3.03;;;23.60;99.90;;;;;;4958972;28;20390;-74
2023/08/11 09:49:10;;;;;;;5.30;3.33;;;23.70;99.90;;;;;;4964998;28;20482;-77
2023/08/11 09:51:37;;;;;;;5.43;3.50;;;23.80;99.90;;;;;;4983267;28;20046;-87
2023/08/11 09:54:08;;;;;;;8.10;3.65;;;23.90;99.90;;;;;;4990189;28;20046;-81
2023/08/11 09:56:36;;;;;;;5.43;3.15;;;23.90;99.90;;;;;;4980325;28;20400;-83
2023/08/11 09:59:17;;;;;;;6.60;3.30;;;24.00;99.90;;;;;;4979708;28;20051;-86
2023/08/11 10:01:44;;;;;;;4.13;3.00;;;24.00;99.90;;;;;;4974322;28;20065;-82
2023/08/11 10:04:41;;;;;;;6.45;3.60;;;24.10;99.90;;;;;;4987140;28;20401;-80
2023/08/11 10:07:13;;;;;;;5.45;3.30;;;24.20;99.90;;;;;;4987595;28;20043;-84
2023/08/11 10:09:41;;;;;;;6.88;3.40;;;24.30;99.90;;;;;;4987215;28;20410;-83
2023/08/11 10:12:09;;;;;;;6.50;3.35;;;24.40;99.90;;;;;;4978971;28;20039;-87
2023/08/11 10:14:36;;;;;;;5.07;3.33;;;24.40;99.90;;;;;;4963159;28;20137;-91
2023/08/11 10:17:03;;;;;;;8.25;3.40;;;24.60;99.90;;;;;;4971736;28;20084;-86
2023/08/11 10:19:29;;;;;;;;;;;24.60;99.90;;;;;;4978116;28;20043;-85
2023/08/11 10:21:56;;;;;;;4.43;3.13;;;24.70;99.90;;;;;;4976224;28;19922;-82
2023/08/11 10:24:24;;;;;;;6.40;3.15;;;24.70;99.90;;;;;;4972241;28;20382;-83
2023/08/11 10:26:50;;;;;;;7.65;3.30;;;24.80;99.90;;;;;;4975458;28;20054;-77
2023/08/11 10:29:17;;;;;;;6.60;3.50;;;24.90;99.90;;;;;;4985631;28;20185;-80
2023/08/11 10:31:59;;;;;;;7.60;3.78;;;24.90;99.90;;;;;;4971450;28;20038;-78
2023/08/11 10:34:26;;;;;;;6.15;4.05;;;25.00;99.90;;;;;;4981378;28;20058;-75
2023/08/11 10:36:56;;;;;;;;;;;25.10;99.90;;;;;;4974685;28;20110;-76
2023/08/11 10:39:22;;;;;;;10.43;3.55;;;25.10;99.90;;;;;;4979411;28;19929;-75
2023/08/11 10:41:49;;;;;;;4.90;3.00;;;25.10;99.90;;;;;;4974302;28;20137;-75
2023/08/11 10:44:24;;;;;;;4.95;2.92;;;25.20;99.90;;;;;;4971895;28;20038;-75
2023/08/11 10:46:51;;;;;;;7.75;3.67;;;25.30;99.90;;;;;;4977638;28;20489;-76
2023/08/11 10:49:17;;;;;;;;;;;25.30;99.90;;;;;;4988145;28;20046;-74
2023/08/11 10:51:43;;;;;;;5.73;2.97;;;25.30;99.90;;;;;;4984354;28;19929;-75
2023/08/11 10:54:11;;;;;;;8.00;3.40;;;25.40;99.90;;;;;;4971689;28;20039;-74
2023/08/11 10:56:42;;;;;;;5.22;3.20;;;25.40;99.90;;;;;;4967403;28;20058;-73
2023/08/11 10:59:17;;;;;;;3.95;2.65;;;25.50;99.90;;;;;;4975191;28;20125;-73
2023/08/11 11:01:48;;;;;;;5.20;2.97;;;25.50;99.90;;;;;;4983071;28;20062;-76
2023/08/11 11:04:16;;;;;;;5.60;3.17;;;25.60;99.90;;;;;;4981878;28;20597;-73
2023/08/11 11:06:44;;;;;;;5.93;2.90;;;25.60;99.90;;;;;;4987249;28;20109;-73
2023/08/11 11:09:10;;;;;;;6.03;3.03;;;25.60;99.90;;;;;;4972419;28;20077;-73
2023/08/11 11:11:36;;;;;;;3.33;2.72;;;25.70;99.90;;;;;;4971294;28;20039;-72
2023/08/11 11:14:08;;;;;;;4.35;2.83;;;25.80;99.90;;;;;;4985689;28;20069;-73
2023/08/11 11:16:35;;;;;;;5.63;3.10;;;25.90;99.90;;;;;;4967024;28;20050;-75
2023/08/11 11:19:05;;;;;;;;;;;26.00;99.90;;;;;;4987666;28;20437;-76
2023/08/11 11:21:31;;;;;;;8.20;2.85;;;26.00;99.90;;;;;;4982388;28;19952;-77
2023/08/11 11:23:58;;;;;;;4.53;2.85;;;26.10;99.90;;;;;;4972996;28;20047;-76
2023/08/11 11:26:31;;;;;;;5.07;2.70;;;26.10;99.90;;;;;;4969769;28;20178;-76
2023/08/11 11:29:02;;;;;;;3.60;2.70;;;26.10;99.90;;;;;;4964024;28;20046;-76
2023/08/11 11:31:31;;;;;;;6.38;2.97;;;26.10;99.90;;;;;;4960413;28;20434;-76
2023/08/11 11:33:57;;;;;;;7.97;2.90;;;26.20;99.90;;;;;;4987014;28;20389;-76
2023/08/11 11:36:23;;;;;;;5.50;2.70;;;26.30;99.90;;;;;;4966092;28;20089;-75
2023/08/11 11:38:49;;;;;;;5.15;3.03;;;26.40;99.90;;;;;;4969997;28;20081;-76
2023/08/11 11:41:17;;;;;;;9.43;2.85;;;26.50;99.90;;;;;;4975268;28;20479;-76
2023/08/11 11:43:46;;;;;;;5.95;3.20;;;26.50;99.90;;;;;;4975061;28;20042;-76
2023/08/11 11:46:16;;;;;;;5.30;2.80;;;26.50;99.90;;;;;;4979661;28;20038;-76
2023/08/11 11:48:44;;;;;;;5.10;2.78;;;26.50;99.90;;;;;;4982287;28;20046;-78
2023/08/11 11:51:11;;;;;;;4.63;2.97;;;26.50;99.90;;;;;;4978296;28;20054;-77
2023/08/11 11:53:40;;;;;;;5.40;2.70;;;26.60;99.90;;;;;;4954566;28;20046;-87
2023/08/11 11:56:09;;;;;;;4.80;3.10;;;26.70;99.90;;;;;;4971486;28;20050;-77
2023/08/11 11:58:38;;;;;;;3.83;2.60;;;26.80;99.90;;;;;;4966120;28;20053;-76
2023/08/11 12:01:13;;;;;;;5.53;2.78;;;26.80;99.90;;;;;;4974566;28;20042;-78
2023/08/11 12:03:39;;;;;;;4.57;2.40;;;27.00;99.90;;;;;;4963751;28;20109;-78
2023/08/11 12:06:06;;;;;;;6.07;2.90;;;27.10;99.90;;;;;;4980646;28;20101;-75
2023/08/11 12:08:32;;;;;;;;;;;27.20;99.90;;;;;;4974469;28;20050;-74
2023/08/11 12:11:00;;;;;;;3.72;2.50;;;27.20;99.90;;;;;;4977738;28;20288;-77
2023/08/11 12:13:26;;;;;;;5.57;2.70;;;27.30;99.90;;;;;;4987556;28;20049;-77
2023/08/11 12:15:52;;;;;;;5.32;3.15;;;27.40;99.90;;;;;;4961000;28;20051;-79
2023/08/11 12:18:19;;;;;;;7.37;2.57;;;27.50;99.90;;;;;;4962534;28;20092;-77
2023/08/11 12:20:45;;;;;;;5.82;2.80;;;27.50;99.90;;;;;;4974093;28;20512;-75
2023/08/11 12:23:10;;;;;;;5.87;2.63;;;27.50;99.90;;;;;;4975508;28;20092;-74
2023/08/11 12:25:36;;;;;;;4.57;2.80;;;27.40;99.90;;;;;;4956524;28;20188;-74
2023/08/11 12:28:02;;;;;;;5.33;2.47;;;27.30;99.90;;;;;;4977997;28;20504;-76
2023/08/11 12:30:28;;;;;;;6.15;2.75;;;27.30;99.90;;;;;;4981912;28;20077;-76
2023/08/11 12:32:54;;;;;;;4.03;2.60;;;27.40;99.90;;;;;;4986559;28;20069;-72
2023/08/11 12:35:20;;;;;;;4.57;2.55;;;27.50;99.90;;;;;;4987148;28;20034;-74
2023/08/11 12:37:46;;;;;;;4.85;3.03;;;27.60;99.90;;;;;;4986471;28;20061;-74
2023/08/11 12:40:12;;;;;;;7.03;3.07;;;27.70;99.90;;;;;;4971039;28;20050;-77